createdAt,value
2018-09-19T10:30:06.076Z,232.00
2018-09-19T10:31:05.944Z,240.00
2018-09-19T10:32:05.951Z,244.00
2018-09-19T10:33:05.928Z,244.00
2018-09-19T10:34:05.807Z,212.00
2018-09-19T10:35:05.771Z,256.00
2018-09-19T10:36:05.689Z,252.00
2018-09-19T10:37:05.650Z,248.00
2018-09-19T10:38:05.555Z,256.00
2018-09-19T10:39:05.488Z,260.00
2018-09-19T10:40:05.420Z,268.00
2018-09-19T10:41:05.348Z,276.00
2018-09-19T10:42:05.308Z,288.00
2018-09-19T10:43:05.200Z,296.00
2018-09-19T10:44:05.162Z,296.00
2018-09-19T10:45:05.066Z,296.00
2018-09-19T10:46:04.970Z,308.00
2018-09-19T10:47:04.930Z,316.00
2018-09-19T10:48:04.821Z,940.00
2018-09-19T10:49:04.744Z,1180.00
2018-09-19T10:50:04.665Z,1152.00
2018-09-19T10:51:04.587Z,1108.00
2018-09-19T10:52:04.536Z,1068.00
2018-09-19T10:53:04.419Z,1184.00
2018-09-19T10:54:04.334Z,1136.00
2018-09-19T10:55:04.325Z,1188.00
2018-09-19T10:56:04.164Z,1200.00
2018-09-19T10:57:04.172Z,1240.00
2018-09-19T10:58:03.985Z,1184.00
2018-09-19T10:59:03.899Z,1180.00
2018-09-19T11:00:03.836Z,1108.00
2018-09-19T11:01:03.722Z,1112.00
2018-09-19T11:02:03.664Z,1072.00
2018-09-19T11:03:03.548Z,1128.00
2018-09-19T11:04:03.454Z,1084.00
2018-09-19T11:05:03.379Z,1068.00
2018-09-19T11:06:03.270Z,1008.00
2018-09-19T11:07:07.296Z,996.00
2018-09-19T11:08:03.112Z,980.00
2018-09-19T11:09:02.990Z,968.00
2018-09-19T11:10:02.897Z,968.00
2018-09-19T11:11:02.800Z,952.00
2018-09-19T11:12:02.703Z,952.00
2018-09-19T11:13:02.641Z,944.00
2018-09-19T11:14:02.535Z,924.00
2018-09-19T11:15:02.413Z,896.00
2018-09-19T11:16:02.317Z,900.00
2018-09-19T11:17:02.225Z,848.00
2018-09-19T11:18:02.159Z,892.00
2018-09-19T11:19:02.037Z,1000.00
2018-09-19T11:20:01.942Z,1032.00
2018-09-19T11:21:01.890Z,1068.00
2018-09-19T11:22:01.760Z,1072.00
2018-09-19T11:23:01.700Z,1116.00
2018-09-19T11:24:01.573Z,1080.00
2018-09-19T11:25:01.486Z,1048.00
2018-09-19T11:26:01.409Z,1064.00
2018-09-19T11:27:01.290Z,972.00
2018-09-19T11:28:01.218Z,972.00
2018-09-19T11:29:01.106Z,920.00
2018-09-19T11:30:01.018Z,936.00
2018-09-19T11:31:00.932Z,956.00
2018-09-19T11:32:00.838Z,1048.00
2018-09-19T11:33:00.756Z,1064.00
2018-09-19T11:34:00.692Z,1180.00
2018-09-19T11:35:00.537Z,1120.00
2018-09-19T11:36:00.445Z,1168.00
2018-09-19T11:37:00.357Z,1128.00
2018-09-19T11:38:00.260Z,1076.00
2018-09-19T11:39:00.188Z,1012.00
2018-09-19T11:40:00.066Z,940.00
2018-09-19T11:40:59.984Z,944.00
2018-09-19T11:41:59.874Z,984.00
2018-09-19T11:42:59.795Z,1060.00
2018-09-19T11:43:59.744Z,1120.00
2018-09-19T11:44:59.621Z,1100.00
2018-09-19T11:45:59.497Z,1140.00
2018-09-19T11:46:59.403Z,1148.00
2018-09-19T11:47:59.310Z,1116.00
2018-09-19T11:48:59.219Z,1140.00
2018-09-19T11:49:59.192Z,1120.00
2018-09-19T11:50:59.039Z,1116.00
2018-09-19T11:51:58.946Z,1116.00
2018-09-19T11:52:58.852Z,1096.00
2018-09-19T11:53:58.757Z,1124.00
2018-09-19T11:54:58.695Z,1100.00
2018-09-19T11:55:58.570Z,1084.00
2018-09-19T11:56:58.476Z,1116.00
2018-09-19T11:57:58.401Z,1040.00
2018-09-19T11:58:58.290Z,1104.00
2018-09-19T11:59:58.220Z,1044.00
2018-09-19T12:00:58.092Z,1112.00
2018-09-19T12:01:58.043Z,1120.00
2018-09-19T12:02:57.968Z,1128.00
2018-09-19T12:03:57.834Z,1100.00
2018-09-19T12:04:57.706Z,1068.00
2018-09-19T12:05:57.732Z,1076.00
2018-09-19T12:06:57.508Z,1112.00
2018-09-19T12:07:57.412Z,1112.00
2018-09-19T12:08:57.311Z,1140.00
2018-09-19T12:09:57.212Z,1096.00
2018-09-19T12:10:57.144Z,1140.00
2018-09-19T12:11:57.016Z,1168.00
2018-09-19T12:12:56.920Z,1148.00
2018-09-19T12:13:56.842Z,1020.00
2018-09-19T12:14:56.756Z,984.00
2018-09-19T12:15:56.637Z,928.00
2018-09-19T12:16:56.539Z,916.00
2018-09-19T12:17:56.443Z,996.00
2018-09-19T12:18:56.428Z,1044.00
2018-09-19T12:19:56.278Z,1024.00
2018-09-19T12:20:56.157Z,1092.00
2018-09-19T12:21:56.062Z,432.00
2018-09-19T12:22:55.965Z,448.00
2018-09-19T12:23:55.871Z,428.00
2018-09-19T12:24:55.804Z,392.00
2018-09-19T12:25:55.685Z,336.00
2018-09-19T12:26:55.589Z,296.00
2018-09-19T12:27:55.494Z,312.00
2018-09-19T12:28:55.405Z,368.00
2018-09-19T12:29:55.340Z,316.00
2018-09-19T12:30:55.221Z,328.00
2018-09-19T12:31:55.157Z,348.00
2018-09-19T12:32:55.041Z,348.00
2018-09-19T12:33:54.954Z,356.00
2018-09-19T12:34:54.904Z,356.00
2018-09-19T12:35:54.776Z,300.00
2018-09-19T12:36:54.717Z,336.00
2018-09-19T12:37:54.599Z,292.00
2018-09-19T12:38:54.501Z,328.00
2018-09-19T12:39:54.429Z,360.00
2018-09-19T12:40:54.346Z,380.00
2018-09-19T12:41:54.231Z,384.00
2018-09-19T12:42:54.129Z,436.00
2018-09-19T12:43:54.038Z,404.00
2018-09-19T12:44:53.943Z,376.00
2018-09-19T12:47:17.595Z,588.00
2018-09-19T12:48:17.584Z,580.00
2018-09-19T12:49:17.554Z,544.00
2018-09-19T12:50:17.543Z,560.00
2018-09-19T12:51:17.526Z,532.00
2018-09-19T12:52:17.534Z,540.00
2018-09-19T12:53:17.586Z,548.00
2018-09-19T12:54:17.516Z,520.00
2018-09-19T12:55:17.483Z,500.00
2018-09-19T12:56:17.473Z,520.00
2018-09-19T12:57:17.460Z,528.00
2018-09-19T12:58:17.494Z,536.00
2018-09-19T12:59:17.440Z,544.00
2018-09-19T13:00:17.427Z,512.00
2018-09-19T13:01:17.427Z,476.00
2018-09-19T13:02:17.545Z,472.00
2018-09-19T13:03:17.540Z,484.00
2018-09-19T13:04:17.389Z,504.00
2018-09-19T13:05:17.372Z,472.00
2018-09-19T13:06:17.364Z,468.00
2018-09-19T13:07:17.384Z,504.00
2018-09-19T13:08:17.443Z,496.00
2018-09-19T13:09:17.352Z,480.00
2018-09-19T13:10:17.316Z,440.00
2018-09-19T13:11:17.306Z,444.00
2018-09-19T13:12:17.295Z,464.00
2018-09-19T13:13:17.282Z,440.00
2018-09-19T13:14:17.300Z,392.00
2018-09-19T13:15:17.262Z,384.00
2018-09-19T13:16:17.342Z,356.00
2018-09-19T13:17:17.239Z,340.00
2018-09-19T13:18:17.229Z,336.00
2018-09-19T13:19:17.241Z,332.00
2018-09-19T13:20:17.206Z,340.00
2018-09-19T13:21:17.194Z,356.00
2018-09-19T13:22:17.207Z,340.00
2018-09-19T13:23:17.172Z,352.00
2018-09-19T13:24:17.256Z,352.00
2018-09-19T13:25:17.192Z,356.00
2018-09-19T13:26:17.147Z,340.00
2018-09-19T13:27:17.179Z,352.00
2018-09-19T13:28:17.117Z,356.00
2018-09-19T13:29:17.107Z,360.00
2018-09-19T13:30:17.139Z,344.00
2018-09-19T13:31:17.083Z,388.00
2018-09-19T13:32:17.072Z,360.00
2018-09-19T13:33:17.067Z,360.00
2018-09-19T13:34:17.053Z,328.00
2018-09-19T13:35:17.066Z,368.00
2018-09-19T13:36:17.029Z,360.00
2018-09-19T13:37:17.058Z,368.00
2018-09-19T13:38:17.007Z,372.00
2018-09-19T13:39:16.994Z,356.00
2018-09-19T13:40:17.013Z,336.00
2018-09-19T13:41:16.972Z,324.00
2018-09-19T13:42:16.987Z,344.00
2018-09-19T13:43:16.949Z,316.00
2018-09-19T13:44:16.940Z,344.00
2018-09-19T13:45:16.928Z,340.00
2018-09-19T13:46:16.917Z,352.00
2018-09-19T13:47:16.930Z,400.00
2018-09-19T13:48:16.902Z,336.00
2018-09-19T13:49:16.905Z,324.00
2018-09-19T13:50:16.872Z,348.00
2018-09-19T13:51:16.861Z,352.00
2018-09-19T13:52:17.020Z,316.00
2018-09-19T13:53:16.841Z,304.00
2018-09-19T13:54:16.827Z,304.00
2018-09-19T13:55:16.819Z,324.00
2018-09-19T13:56:16.809Z,340.00
2018-09-19T13:57:16.820Z,324.00
2018-09-19T13:58:16.788Z,296.00
2018-09-19T13:59:16.774Z,344.00
2018-09-19T14:00:16.762Z,372.00
2018-09-19T14:01:16.860Z,400.00
2018-09-19T14:02:17.052Z,412.00
2018-09-19T14:03:16.808Z,424.00
2018-09-19T14:04:16.848Z,428.00
2018-09-19T14:05:16.808Z,420.00
2018-09-19T14:06:16.848Z,380.00
2018-09-19T14:07:16.709Z,376.00
2018-09-19T14:08:16.697Z,368.00
2018-09-19T14:09:16.661Z,348.00
2018-09-19T14:10:16.653Z,332.00
2018-09-19T14:11:16.641Z,324.00
2018-09-19T14:12:16.680Z,316.00
2018-09-19T14:13:16.643Z,324.00
2018-09-19T14:14:16.604Z,320.00
2018-09-19T14:15:16.594Z,312.00
2018-09-19T14:16:16.588Z,288.00
2018-09-19T14:17:16.572Z,276.00
2018-09-19T14:18:16.589Z,280.00
2018-09-19T14:19:16.549Z,292.00
2018-09-19T14:20:16.540Z,328.00
2018-09-19T14:21:16.534Z,344.00
2018-09-19T14:22:16.610Z,336.00
2018-09-19T14:23:16.538Z,328.00
2018-09-19T14:24:16.498Z,324.00
2018-09-19T14:25:16.484Z,356.00
2018-09-19T14:26:16.508Z,328.00
2018-09-19T14:27:16.461Z,304.00
2018-09-19T14:28:16.579Z,288.00
2018-09-19T14:29:16.438Z,300.00
2018-09-19T14:30:16.430Z,312.00
2018-09-19T14:31:16.416Z,320.00
2018-09-19T14:32:16.404Z,328.00
2018-09-19T14:33:16.515Z,352.00
2018-09-19T14:34:16.383Z,396.00
2018-09-19T14:35:16.386Z,420.00
2018-09-19T14:36:16.361Z,420.00
2018-09-19T14:37:16.350Z,376.00
2018-09-19T14:38:16.372Z,368.00
2018-09-19T14:39:16.328Z,380.00
2018-09-19T14:40:16.318Z,368.00
2018-09-19T14:41:16.463Z,336.00
2018-09-19T14:42:16.293Z,324.00
2018-09-19T14:43:16.330Z,316.00
2018-09-19T14:44:16.273Z,308.00
2018-09-19T14:45:16.413Z,304.00
2018-09-19T14:46:16.252Z,304.00
2018-09-19T14:47:16.239Z,332.00
2018-09-19T14:48:16.252Z,296.00
2018-09-19T14:49:16.290Z,272.00
2018-09-19T14:50:16.204Z,244.00
2018-09-19T14:51:16.195Z,240.00
2018-09-19T14:52:16.208Z,252.00
2018-09-19T14:53:16.171Z,252.00
2018-09-19T14:54:16.260Z,260.00
2018-09-19T14:55:16.175Z,312.00
2018-09-19T14:56:16.140Z,308.00
2018-09-19T14:57:16.144Z,312.00
2018-09-19T14:58:16.160Z,328.00
2018-09-19T14:59:16.107Z,324.00
2018-09-19T15:00:16.121Z,324.00
2018-09-19T15:01:16.083Z,312.00
2018-09-19T15:02:16.098Z,296.00
2018-09-19T15:03:16.086Z,280.00
2018-09-19T15:04:16.050Z,280.00
2018-09-19T15:05:16.057Z,272.00
2018-09-19T15:06:16.060Z,244.00
2018-09-19T15:07:16.017Z,236.00
2018-09-19T15:08:16.030Z,220.00
2018-09-19T15:09:16.025Z,216.00
2018-09-19T15:10:15.982Z,212.00
2018-09-19T15:11:15.971Z,208.00
2018-09-19T15:12:15.993Z,220.00
2018-09-19T15:13:15.949Z,224.00
2018-09-19T15:14:15.937Z,224.00
2018-09-19T15:15:15.926Z,228.00
2018-09-19T15:16:15.915Z,240.00
2018-09-19T15:17:15.979Z,248.00
2018-09-19T15:18:15.956Z,236.00
2018-09-19T15:19:15.907Z,228.00
2018-09-19T15:20:15.871Z,232.00
2018-09-19T15:21:15.860Z,228.00
2018-09-19T15:22:15.848Z,232.00
2018-09-19T15:23:15.839Z,236.00
2018-09-19T15:24:15.873Z,256.00
2018-09-19T15:25:15.817Z,252.00
2018-09-19T15:26:15.805Z,248.00
2018-09-19T15:27:15.793Z,248.00
2018-09-19T15:28:15.781Z,272.00
2018-09-19T15:29:15.795Z,264.00
2018-09-19T15:30:15.783Z,260.00
2018-09-19T15:31:15.748Z,252.00
2018-09-19T15:32:15.746Z,240.00
2018-09-19T15:33:15.727Z,228.00
2018-09-19T15:34:15.716Z,220.00
2018-09-19T15:35:15.757Z,208.00
2018-09-19T15:36:15.695Z,196.00
2018-09-19T15:37:15.683Z,196.00
2018-09-19T15:38:15.722Z,216.00
2018-09-19T15:39:15.661Z,224.00
2018-09-19T15:40:15.673Z,220.00
2018-09-19T15:41:15.657Z,220.00
2018-09-19T15:42:15.624Z,216.00
2018-09-19T15:43:15.641Z,216.00
2018-09-19T15:44:15.632Z,228.00
2018-09-19T15:45:15.594Z,240.00
2018-09-19T15:46:15.580Z,232.00
2018-09-19T15:47:15.605Z,224.00
2018-09-19T15:48:15.567Z,236.00
2018-09-19T15:49:15.548Z,248.00
2018-09-19T15:50:15.536Z,256.00
2018-09-19T15:51:15.526Z,248.00
2018-09-19T15:52:15.548Z,248.00
2018-09-19T15:53:15.503Z,232.00
2018-09-19T15:54:15.493Z,228.00
2018-09-19T15:55:15.483Z,220.00
2018-09-19T15:56:15.472Z,220.00
2018-09-19T15:57:15.502Z,212.00
2018-09-19T15:58:15.448Z,204.00
2018-09-19T15:59:15.454Z,212.00
2018-09-19T16:00:15.426Z,220.00
2018-09-19T16:01:15.432Z,232.00
2018-09-19T16:02:15.403Z,212.00
2018-09-19T16:03:15.391Z,208.00
2018-09-19T16:04:15.441Z,196.00
2018-09-19T16:05:15.370Z,188.00
2018-09-19T16:06:15.463Z,180.00
2018-09-19T16:07:15.348Z,168.00
2018-09-19T16:08:15.362Z,168.00
2018-09-19T16:09:15.332Z,164.00
2018-09-19T16:10:15.367Z,168.00
2018-09-19T16:11:15.304Z,164.00
2018-09-19T16:12:15.291Z,164.00
2018-09-19T16:13:15.280Z,164.00
2018-09-19T16:14:15.297Z,164.00
2018-09-19T16:15:15.347Z,160.00
2018-09-19T16:16:15.247Z,164.00
2018-09-19T16:17:15.235Z,168.00
2018-09-19T16:18:15.270Z,164.00
2018-09-19T16:19:15.263Z,160.00
2018-09-19T16:20:15.203Z,156.00
2018-09-19T16:21:15.195Z,152.00
2018-09-19T16:22:15.184Z,156.00
2018-09-19T16:23:15.168Z,152.00
2018-09-19T16:24:15.192Z,148.00
2018-09-19T16:25:15.147Z,148.00
2018-09-19T16:26:15.139Z,144.00
2018-09-19T16:27:15.127Z,144.00
2018-09-19T16:28:15.114Z,144.00
2018-09-19T16:29:15.229Z,140.00
2018-09-19T16:30:15.092Z,140.00
2018-09-19T16:31:15.086Z,140.00
2018-09-19T16:32:15.069Z,140.00
2018-09-19T16:33:15.058Z,136.00
2018-09-19T16:34:15.082Z,136.00
2018-09-19T16:35:15.092Z,136.00
2018-09-19T16:36:15.250Z,136.00
2018-09-19T16:37:15.012Z,132.00
2018-09-19T16:38:15.010Z,136.00
2018-09-19T16:39:15.016Z,136.00
2018-09-19T16:40:15.013Z,136.00
2018-09-19T16:41:14.970Z,136.00
2018-09-19T16:42:14.959Z,136.00
2018-09-19T16:43:14.947Z,136.00
2018-09-19T16:44:14.936Z,132.00
2018-09-19T16:45:14.950Z,128.00
2018-09-19T16:46:14.912Z,128.00
2018-09-19T16:47:14.900Z,124.00
2018-09-19T16:48:14.919Z,124.00
2018-09-19T16:49:14.878Z,120.00
2018-09-19T16:50:14.868Z,116.00
2018-09-19T16:51:14.893Z,116.00
2018-09-19T16:52:14.852Z,116.00
2018-09-19T16:53:14.860Z,108.00
2018-09-19T16:54:14.824Z,108.00
2018-09-19T16:55:14.820Z,104.00
2018-09-19T16:56:14.852Z,104.00
2018-09-19T16:57:14.792Z,96.00
2018-09-19T16:58:14.792Z,100.00
2018-09-19T16:59:14.875Z,96.00
2018-09-19T17:00:14.758Z,92.00
2018-09-19T17:01:14.783Z,92.00
2018-09-19T17:02:14.736Z,84.00
2018-09-19T17:03:14.724Z,84.00
2018-09-19T17:04:14.712Z,80.00
2018-09-19T17:05:14.700Z,80.00
2018-09-19T17:06:14.728Z,76.00
2018-09-19T17:07:14.679Z,72.00
2018-09-19T17:08:14.668Z,68.00
2018-09-19T17:09:14.656Z,64.00
2018-09-19T17:10:14.650Z,60.00
2018-09-19T17:11:14.664Z,60.00
2018-09-19T17:12:14.626Z,52.00
2018-09-19T17:13:14.613Z,52.00
2018-09-19T17:14:14.601Z,48.00
2018-09-19T17:15:14.652Z,48.00
2018-09-19T17:16:14.604Z,48.00
2018-09-19T17:17:14.567Z,44.00
2018-09-19T17:18:14.557Z,40.00
2018-09-19T17:19:14.546Z,40.00
2018-09-19T17:20:14.571Z,36.00
2018-09-19T17:21:14.554Z,32.00
2018-09-19T17:22:14.512Z,32.00
2018-09-19T17:23:14.499Z,32.00
2018-09-19T17:24:14.488Z,24.00
2018-09-19T17:25:14.488Z,24.00
2018-09-19T17:26:14.493Z,20.00
2018-09-19T17:27:14.455Z,20.00
2018-09-19T17:28:14.445Z,20.00
2018-09-19T17:29:14.433Z,16.00
2018-09-19T17:30:14.422Z,16.00
2018-09-19T17:31:14.435Z,16.00
2018-09-19T17:32:14.404Z,12.00
2018-09-19T17:33:14.391Z,12.00
2018-09-19T17:34:14.379Z,12.00
2018-09-19T17:35:14.392Z,8.00
2018-09-19T17:36:14.357Z,8.00
2018-09-19T17:37:14.477Z,8.00
2018-09-19T17:38:14.332Z,8.00
2018-09-19T17:39:14.322Z,4.00
2018-09-19T17:40:14.311Z,8.00
2018-09-19T17:41:14.298Z,8.00
2018-09-19T17:42:14.354Z,4.00
2018-09-19T17:43:14.277Z,4.00
2018-09-19T17:44:14.269Z,4.00
2018-09-19T17:45:14.255Z,4.00
2018-09-19T17:46:14.244Z,4.00
2018-09-19T17:47:14.257Z,4.00
2018-09-19T17:48:14.227Z,4.00
2018-09-19T17:49:14.257Z,4.00
2018-09-19T17:50:14.199Z,0.00
2018-09-19T17:51:14.187Z,4.00
2018-09-19T17:52:14.178Z,4.00
2018-09-19T17:53:14.170Z,4.00
2018-09-19T17:54:14.180Z,4.00
2018-09-19T17:55:14.147Z,0.00
2018-09-19T17:56:14.133Z,0.00
2018-09-19T17:57:14.121Z,0.00
2018-09-19T17:58:14.156Z,0.00
2018-09-19T17:59:14.126Z,0.00
2018-09-19T18:00:14.127Z,0.00
2018-09-19T18:01:14.101Z,0.00
2018-09-19T18:02:14.085Z,0.00
2018-09-19T18:03:14.080Z,0.00
2018-09-19T18:04:14.041Z,0.00
2018-09-19T18:05:14.061Z,0.00
2018-09-19T18:06:14.076Z,0.00
2018-09-19T18:07:14.010Z,0.00
2018-09-19T18:08:14.052Z,0.00
2018-09-19T18:09:13.988Z,0.00
2018-09-19T18:10:14.001Z,0.00
2018-09-19T18:11:13.964Z,0.00
2018-09-19T18:12:13.981Z,0.00
2018-09-19T18:13:13.942Z,0.00
2018-09-19T18:14:13.966Z,0.00
2018-09-19T18:15:13.950Z,0.00
2018-09-19T18:16:14.032Z,0.00
2018-09-19T18:17:13.898Z,0.00
2018-09-19T18:18:13.890Z,0.00
2018-09-19T18:19:13.903Z,0.00
2018-09-19T18:20:13.865Z,0.00
2018-09-19T18:21:13.854Z,0.00
2018-09-19T18:22:13.932Z,0.00
2018-09-19T18:23:13.833Z,0.00
2018-09-19T18:24:13.821Z,0.00
2018-09-19T18:25:13.851Z,0.00
2018-09-19T18:26:13.803Z,0.00
2018-09-19T18:27:13.828Z,0.00
2018-09-19T18:28:13.776Z,0.00
2018-09-19T18:29:13.765Z,0.00
2018-09-19T18:30:13.791Z,0.00
2018-09-19T18:31:13.858Z,0.00
2018-09-19T18:32:13.731Z,0.00
2018-09-19T18:33:13.719Z,0.00
2018-09-19T18:34:13.713Z,0.00
2018-09-19T18:35:13.697Z,0.00
2018-09-19T18:36:13.712Z,0.00
2018-09-19T18:37:13.699Z,0.00
2018-09-19T18:38:13.680Z,0.00
2018-09-19T18:39:13.654Z,0.00
2018-09-19T18:40:13.687Z,0.00
2018-09-19T18:41:13.630Z,0.00
2018-09-19T18:42:13.659Z,0.00
2018-09-19T18:43:13.608Z,0.00
2018-09-19T18:44:13.622Z,0.00
2018-09-19T18:45:13.585Z,0.00
2018-09-19T18:46:13.582Z,0.00
2018-09-19T18:47:13.599Z,0.00
2018-09-19T18:48:13.553Z,0.00
2018-09-19T18:49:13.581Z,0.00
2018-09-19T18:50:13.531Z,0.00
2018-09-19T18:51:13.523Z,0.00
2018-09-19T18:52:13.509Z,0.00
2018-09-19T18:53:13.502Z,0.00
2018-09-19T18:54:13.524Z,0.00
2018-09-19T18:55:13.481Z,0.00
2018-09-19T18:56:13.464Z,0.00
2018-09-19T18:57:13.480Z,0.00
2018-09-19T18:58:13.440Z,0.00
2018-09-19T18:59:13.429Z,0.00
2018-09-19T19:00:13.418Z,0.00
2018-09-19T19:01:13.435Z,0.00
2018-09-19T19:02:13.412Z,0.00
2018-09-19T19:03:13.434Z,0.00
2018-09-19T19:04:13.374Z,0.00
2018-09-19T19:05:13.364Z,0.00
2018-09-19T19:06:13.353Z,0.00
2018-09-19T19:07:13.409Z,0.00
2018-09-19T19:08:13.331Z,0.00
2018-09-19T19:09:13.320Z,0.00
2018-09-19T19:10:13.308Z,0.00
2018-09-19T19:11:13.297Z,0.00
2018-09-19T19:12:13.322Z,0.00
2018-09-19T19:13:13.278Z,0.00
2018-09-19T19:14:13.262Z,0.00
2018-09-19T19:15:13.253Z,0.00
2018-09-19T19:16:13.243Z,0.00
2018-09-19T19:17:13.318Z,0.00
2018-09-19T19:18:13.221Z,0.00
2018-09-19T19:19:13.209Z,0.00
2018-09-19T19:20:13.196Z,0.00
2018-09-19T19:21:13.186Z,0.00
2018-09-19T19:22:13.198Z,0.00
2018-09-19T19:23:13.272Z,0.00
2018-09-19T19:24:13.150Z,0.00
2018-09-19T19:25:13.140Z,0.00
2018-09-19T19:26:13.196Z,0.00
2018-09-19T19:27:13.118Z,0.00
2018-09-19T19:28:13.140Z,0.00
2018-09-19T19:29:13.097Z,0.00
2018-09-19T19:30:13.162Z,0.00
2018-09-19T19:31:13.075Z,0.00
2018-09-19T19:32:13.087Z,0.00
2018-09-19T19:33:13.051Z,0.00
2018-09-19T19:34:13.041Z,0.00
2018-09-19T19:35:13.029Z,0.00
2018-09-19T19:36:13.028Z,0.00
2018-09-19T19:37:13.031Z,0.00
2018-09-19T19:38:13.038Z,0.00
2018-09-19T19:39:12.985Z,0.00
2018-09-19T19:40:12.999Z,0.00
2018-09-19T19:41:12.964Z,0.00
2018-09-19T19:42:12.979Z,0.00
2018-09-19T19:43:12.941Z,0.00
2018-09-19T19:44:12.929Z,0.00
2018-09-19T19:45:12.976Z,0.00
2018-09-19T19:46:12.906Z,0.00
2018-09-19T19:47:12.923Z,0.00
2018-09-19T19:48:12.885Z,0.00
2018-09-19T19:49:12.874Z,0.00
2018-09-19T19:50:12.870Z,0.00
2018-09-19T19:51:12.876Z,0.00
2018-09-19T19:52:12.839Z,0.00
2018-09-19T19:53:12.962Z,0.00
2018-09-19T19:54:12.817Z,0.00
2018-09-19T19:55:12.808Z,0.00
2018-09-19T19:56:12.816Z,0.00
2018-09-19T19:57:12.783Z,0.00
2018-09-19T19:58:12.798Z,0.00
2018-09-19T19:59:12.848Z,0.00
2018-09-19T20:00:12.752Z,0.00
2018-09-19T20:01:12.740Z,0.00
2018-09-19T20:02:12.728Z,0.00
2018-09-19T20:03:12.742Z,0.00
2018-09-19T20:04:12.705Z,0.00
2018-09-19T20:05:12.727Z,0.00
2018-09-19T20:06:12.684Z,0.00
2018-09-19T20:07:12.674Z,0.00
2018-09-19T20:08:12.699Z,0.00
2018-09-19T20:09:12.651Z,0.00
2018-09-19T20:10:12.648Z,0.00
2018-09-19T20:11:12.631Z,0.00
2018-09-19T20:12:12.642Z,0.00
2018-09-19T20:13:12.674Z,0.00
2018-09-19T20:14:12.602Z,0.00
2018-09-19T20:15:12.584Z,0.00
2018-09-19T20:16:12.574Z,0.00
2018-09-19T20:17:12.567Z,0.00
2018-09-19T20:18:12.602Z,0.00
2018-09-19T20:19:12.580Z,0.00
2018-09-19T20:20:12.528Z,0.00
2018-09-19T20:21:12.517Z,0.00
2018-09-19T20:22:12.505Z,0.00
2018-09-19T20:23:12.520Z,0.00
2018-09-19T20:24:12.509Z,0.00
2018-09-19T20:25:12.473Z,0.00
2018-09-19T20:26:12.473Z,0.00
2018-09-19T20:27:12.457Z,0.00
2018-09-19T20:28:12.440Z,0.00
2018-09-19T20:29:12.455Z,0.00
2018-09-19T20:30:12.445Z,0.00
2018-09-19T20:31:12.405Z,0.00
2018-09-19T20:32:12.393Z,0.00
2018-09-19T20:33:12.384Z,0.00
2018-09-19T20:34:12.407Z,0.00
2018-09-19T20:35:12.393Z,0.00
2018-09-19T20:36:12.356Z,0.00
2018-09-19T20:37:12.337Z,0.00
2018-09-19T20:38:12.328Z,0.00
2018-09-19T20:39:12.317Z,0.00
2018-09-19T20:40:12.330Z,0.00
2018-09-19T20:41:12.340Z,0.00
2018-09-19T20:42:12.320Z,0.00
2018-09-19T20:43:12.271Z,0.00
2018-09-19T20:44:12.261Z,0.00
2018-09-19T20:45:12.252Z,0.00
2018-09-19T20:46:12.239Z,0.00
2018-09-19T20:47:12.252Z,0.00
2018-09-19T20:48:12.219Z,0.00
2018-09-19T20:49:12.230Z,0.00
2018-09-19T20:50:12.239Z,0.00
2018-09-19T20:51:12.184Z,0.00
2018-09-19T20:52:12.198Z,0.00
2018-09-19T20:53:12.164Z,0.00
2018-09-19T20:54:12.149Z,0.00
2018-09-19T20:55:12.140Z,0.00
2018-09-19T20:56:12.127Z,0.00
2018-09-19T20:57:12.158Z,0.00
2018-09-19T20:58:12.104Z,0.00
2018-09-19T20:59:12.094Z,0.00
2018-09-19T21:00:12.114Z,0.00
2018-09-19T21:01:12.080Z,0.00
2018-09-19T21:02:12.087Z,0.00
2018-09-19T21:03:12.107Z,0.00
2018-09-19T21:04:12.051Z,0.00
2018-09-19T21:05:12.028Z,0.00
2018-09-19T21:06:12.017Z,0.00
2018-09-19T21:07:12.003Z,0.00
2018-09-19T21:08:12.018Z,0.00
2018-09-19T21:09:11.983Z,0.00
2018-09-19T21:10:11.975Z,0.00
2018-09-19T21:11:12.013Z,0.00
2018-09-19T21:12:11.949Z,0.00
2018-09-19T21:13:11.938Z,0.00
2018-09-19T21:14:11.927Z,0.00
2018-09-19T21:15:11.916Z,0.00
2018-09-19T21:16:12.106Z,0.00
2018-09-19T21:17:11.894Z,0.00
2018-09-19T21:18:11.882Z,0.00
2018-09-19T21:19:11.873Z,0.00
2018-09-19T21:20:11.859Z,0.00
2018-09-19T21:21:11.872Z,0.00
2018-09-19T21:22:12.041Z,0.00
2018-09-19T21:23:11.852Z,0.00
2018-09-19T21:24:11.816Z,0.00
2018-09-19T21:25:11.804Z,0.00
2018-09-19T21:26:11.792Z,0.00
2018-09-19T21:27:11.786Z,0.00
2018-09-19T21:28:11.836Z,0.00
2018-09-19T21:29:11.759Z,0.00
2018-09-19T21:30:11.749Z,0.00
2018-09-19T21:31:11.738Z,0.00
2018-09-19T21:32:11.727Z,0.00
2018-09-19T21:33:11.740Z,0.00
2018-09-19T21:34:11.821Z,0.00
2018-09-19T21:35:11.691Z,0.00
2018-09-19T21:36:12.597Z,0.00
2018-09-19T21:37:11.670Z,0.00
2018-09-19T21:38:11.658Z,0.00
2018-09-19T21:39:11.690Z,0.00
2018-09-19T21:40:11.639Z,0.00
2018-09-19T21:41:11.624Z,0.00
2018-09-19T21:42:11.615Z,0.00
2018-09-19T21:43:11.603Z,0.00
2018-09-19T21:44:11.615Z,0.00
2018-09-19T21:45:11.579Z,0.00
2018-09-19T21:46:11.582Z,0.00
2018-09-19T21:47:11.558Z,0.00
2018-09-19T21:48:11.668Z,0.00
2018-09-19T21:49:11.580Z,0.00
2018-09-19T21:50:11.524Z,0.00
2018-09-19T21:51:11.513Z,0.00
2018-09-19T21:52:11.503Z,0.00
2018-09-19T21:53:11.490Z,0.00
2018-09-19T21:54:11.533Z,0.00
2018-09-19T21:55:11.468Z,0.00
2018-09-19T21:56:11.457Z,0.00
2018-09-19T21:57:11.446Z,0.00
2018-09-19T21:58:11.525Z,0.00
2018-09-19T21:59:11.449Z,0.00
2018-09-19T22:00:11.413Z,0.00
2018-09-19T22:01:11.400Z,0.00
2018-09-19T22:02:11.415Z,0.00
2018-09-19T22:03:11.380Z,0.00
2018-09-19T22:04:11.402Z,0.00
2018-09-19T22:05:11.415Z,0.00
2018-09-19T22:06:11.346Z,0.00
2018-09-19T22:07:11.352Z,0.00
2018-09-19T22:08:11.348Z,0.00
2018-09-19T22:09:11.311Z,0.00
2018-09-19T22:10:11.302Z,0.00
2018-09-19T22:11:11.292Z,0.00
2018-09-19T22:12:11.279Z,0.00
2018-09-19T22:13:11.294Z,0.00
2018-09-19T22:14:11.256Z,0.00
2018-09-19T22:15:11.269Z,0.00
2018-09-19T22:16:11.289Z,0.00
2018-09-19T22:17:11.222Z,0.00
2018-09-19T22:18:11.212Z,0.00
2018-09-19T22:19:11.243Z,0.00
2018-09-19T22:20:11.191Z,0.00
2018-09-19T22:21:11.178Z,0.00
2018-09-19T22:22:11.167Z,0.00
2018-09-19T22:23:11.157Z,0.00
2018-09-19T22:24:11.170Z,0.00
2018-09-19T22:25:11.132Z,0.00
2018-09-19T22:26:11.146Z,0.00
2018-09-19T22:27:11.111Z,0.00
2018-09-19T22:28:11.101Z,0.00
2018-09-19T22:29:11.132Z,0.00
2018-09-19T22:30:11.078Z,0.00
2018-09-19T22:31:11.108Z,0.00
2018-09-19T22:32:11.090Z,0.00
2018-09-19T22:33:11.045Z,0.00
2018-09-19T22:34:11.032Z,0.00
2018-09-19T22:35:11.032Z,0.00
2018-09-19T22:36:11.035Z,0.00
2018-09-19T22:37:11.000Z,0.00
2018-09-19T22:38:10.988Z,0.00
2018-09-19T22:39:10.977Z,0.00
2018-09-19T22:40:10.967Z,0.00
2018-09-19T22:41:10.978Z,0.00
2018-09-19T22:42:11.038Z,0.00
2018-09-19T22:43:10.935Z,0.00
2018-09-19T22:44:11.610Z,0.00
2018-09-19T22:45:10.913Z,0.00
2018-09-19T22:46:10.993Z,0.00
2018-09-19T22:47:10.887Z,0.00
2018-09-19T22:48:10.898Z,0.00
2018-09-19T22:49:10.864Z,0.00
2018-09-19T22:50:10.879Z,0.00
2018-09-19T22:51:10.844Z,0.00
2018-09-19T22:52:10.831Z,0.00
2018-09-19T22:53:10.861Z,0.00
2018-09-19T22:54:10.809Z,0.00
2018-09-19T22:55:10.822Z,0.00
2018-09-19T22:56:10.822Z,0.00
2018-09-19T22:57:10.777Z,0.00
2018-09-19T22:58:10.763Z,0.00
2018-09-19T22:59:10.755Z,0.00
2018-09-19T23:00:10.804Z,0.00
2018-09-19T23:01:10.733Z,0.00
2018-09-19T23:02:10.719Z,0.00
2018-09-19T23:03:10.753Z,0.00
2018-09-19T23:04:10.698Z,0.00
2018-09-19T23:05:10.686Z,0.00
2018-09-19T23:06:10.675Z,0.00
2018-09-19T23:07:10.663Z,0.00
2018-09-19T23:08:10.679Z,0.00
2018-09-19T23:09:10.642Z,0.00
2018-09-19T23:10:10.655Z,0.00
2018-09-19T23:11:10.620Z,0.00
2018-09-19T23:12:10.632Z,0.00
2018-09-19T23:13:10.600Z,0.00
2018-09-19T23:14:10.586Z,0.00
2018-09-19T23:15:10.575Z,0.00
2018-09-19T23:16:10.565Z,0.00
2018-09-19T23:17:10.576Z,0.00
2018-09-19T23:18:10.541Z,0.00
2018-09-19T23:19:10.554Z,0.00
2018-09-19T23:20:10.520Z,0.00